createdAt,value
2022-09-25T00:00:47.777Z,19.20
2022-09-25T00:03:15.514Z,19.40
2022-09-25T00:05:45.674Z,18.63
2022-09-25T00:08:13.838Z,19.60
2022-09-25T00:10:46.442Z,18.90
2022-09-25T00:13:13.970Z,18.77
2022-09-25T00:15:47.217Z,19.53
2022-09-25T00:18:13.910Z,18.10
2022-09-25T00:20:40.351Z,18.70
2022-09-25T00:23:07.084Z,18.00
2022-09-25T00:25:33.482Z,18.30
2022-09-25T00:27:59.965Z,19.10
2022-09-25T00:30:26.579Z,17.37
2022-09-25T00:32:53.017Z,18.13
2022-09-25T00:35:19.363Z,18.07
2022-09-25T00:37:45.823Z,19.30
2022-09-25T00:40:12.278Z,18.97
2022-09-25T00:42:38.881Z,19.50
2022-09-25T00:45:16.858Z,18.07
2022-09-25T00:48:02.891Z,18.57
2022-09-25T00:50:32.324Z,18.87
2022-09-25T00:53:11.168Z,19.57
2022-09-25T00:55:39.877Z,18.83
2022-09-25T00:58:06.916Z,18.80
2022-09-25T01:00:35.294Z,18.47
2022-09-25T01:03:02.957Z,19.50
2022-09-25T01:05:33.094Z,19.07
2022-09-25T01:08:03.200Z,18.13
2022-09-25T01:10:29.568Z,19.20
2022-09-25T01:12:57.962Z,19.30
2022-09-25T01:15:34.075Z,19.23
2022-09-25T01:18:11.733Z,20.03
2022-09-25T01:21:05.077Z,19.80
2022-09-25T01:24:03.401Z,19.50
2022-09-25T01:27:27.301Z,19.67
2022-09-25T01:30:02.954Z,18.53
2022-09-25T01:32:38.930Z,19.67
2022-09-25T01:35:40.833Z,18.57
2022-09-25T01:38:17.541Z,18.63
2022-09-25T01:40:53.717Z,20.03
2022-09-25T01:43:26.019Z,19.73
2022-09-25T01:46:00.015Z,19.97
2022-09-25T01:48:29.875Z,19.77
2022-09-25T01:51:01.631Z,20.20
2022-09-25T01:53:34.712Z,21.20
2022-09-25T01:56:33.837Z,20.87
2022-09-25T01:59:10.749Z,21.53
2022-09-25T02:01:41.803Z,21.23
2022-09-25T02:04:13.960Z,20.97
2022-09-25T02:06:46.738Z,21.60
2022-09-25T02:09:34.552Z,21.43
2022-09-25T02:12:10.121Z,22.37
2022-09-25T02:14:48.926Z,21.80
2022-09-25T02:17:45.055Z,21.83
2022-09-25T02:20:29.766Z,21.43
2022-09-25T02:23:05.513Z,21.83
2022-09-25T02:25:38.343Z,22.27
2022-09-25T02:28:04.795Z,22.83
2022-09-25T02:30:31.601Z,23.73
2022-09-25T02:32:58.136Z,22.67
2022-09-25T02:35:25.924Z,22.43
2022-09-25T02:37:56.251Z,22.13
2022-09-25T02:40:36.298Z,22.80
2022-09-25T02:43:18.896Z,21.63
2022-09-25T02:46:13.482Z,23.73
2022-09-25T02:48:59.267Z,23.53
2022-09-25T02:51:36.846Z,22.97
2022-09-25T02:54:06.212Z,22.47
2022-09-25T02:56:47.010Z,22.07
2022-09-25T02:59:35.746Z,22.23
2022-09-25T03:02:02.954Z,22.70
2022-09-25T03:04:32.194Z,22.47
2022-09-25T03:06:58.992Z,22.13
2022-09-25T03:09:26.934Z,20.77
2022-09-25T03:11:55.091Z,21.03
2022-09-25T03:14:21.607Z,18.97
2022-09-25T03:16:51.831Z,18.30
2022-09-25T03:19:19.846Z,17.87
2022-09-25T03:21:47.506Z,16.80
2022-09-25T03:24:15.178Z,15.67
2022-09-25T03:26:42.456Z,16.33
2022-09-25T03:29:09.367Z,14.83
2022-09-25T03:31:35.682Z,13.97
2022-09-25T03:34:02.073Z,14.43
2022-09-25T03:36:31.205Z,13.50
2022-09-25T03:38:59.068Z,13.17
2022-09-25T03:41:28.970Z,11.60
2022-09-25T03:43:56.579Z,11.73
2022-09-25T03:46:25.907Z,11.90
2022-09-25T03:48:53.452Z,11.80
2022-09-25T03:51:20.547Z,11.87
2022-09-25T03:53:47.769Z,12.37
2022-09-25T03:56:20.728Z,12.40
2022-09-25T03:58:48.488Z,13.23
2022-09-25T04:01:15.786Z,11.97
2022-09-25T04:03:45.578Z,12.03
2022-09-25T04:06:12.007Z,11.13
2022-09-25T04:08:38.485Z,11.47
2022-09-25T04:11:05.260Z,10.63
2022-09-25T04:13:42.067Z,10.57
2022-09-25T04:16:08.703Z,9.83
2022-09-25T04:18:35.698Z,9.63
2022-09-25T04:21:04.737Z,8.93
2022-09-25T04:23:31.770Z,9.50
2022-09-25T04:25:58.454Z,7.87
2022-09-25T04:28:25.694Z,7.97
2022-09-25T04:30:52.069Z,6.40
2022-09-25T04:33:37.532Z,6.33
2022-09-25T04:36:04.931Z,6.00
2022-09-25T04:38:32.396Z,5.67
2022-09-25T04:41:00.125Z,5.40
2022-09-25T04:43:29.569Z,4.57
2022-09-25T04:45:56.034Z,4.70
2022-09-25T04:48:22.497Z,4.00
2022-09-25T04:50:50.964Z,3.87
2022-09-25T04:53:18.214Z,4.03
2022-09-25T04:55:46.279Z,3.90
2022-09-25T04:58:12.797Z,3.23
2022-09-25T05:00:40.970Z,3.33
2022-09-25T05:03:07.390Z,3.13
2022-09-25T05:05:35.240Z,2.83
2022-09-25T05:08:02.423Z,3.40
2022-09-25T05:10:34.991Z,3.57
2022-09-25T05:13:03.941Z,3.10
2022-09-25T05:15:32.089Z,3.43
2022-09-25T05:18:07.149Z,3.20
2022-09-25T05:20:35.808Z,3.33
2022-09-25T05:23:04.142Z,3.80
2022-09-25T05:25:31.833Z,3.87
2022-09-25T05:27:59.647Z,3.13
2022-09-25T05:30:28.651Z,3.27
2022-09-25T05:32:58.228Z,3.17
2022-09-25T05:35:26.257Z,3.43
2022-09-25T05:37:52.807Z,3.50
2022-09-25T05:40:24.135Z,3.30
2022-09-25T05:42:51.914Z,3.40
2022-09-25T05:45:20.418Z,3.30
2022-09-25T05:47:47.183Z,3.30
2022-09-25T05:50:15.830Z,3.07
2022-09-25T05:52:42.186Z,3.30
2022-09-25T05:55:10.900Z,3.30
2022-09-25T05:57:38.182Z,3.47
2022-09-25T06:00:08.626Z,3.00
2022-09-25T06:02:35.420Z,2.93
2022-09-25T06:05:01.795Z,2.87
2022-09-25T06:07:28.303Z,3.20
2022-09-25T06:09:54.638Z,3.13
2022-09-25T06:12:23.075Z,2.83
2022-09-25T06:14:49.523Z,2.80
2022-09-25T06:17:15.995Z,2.80
2022-09-25T06:19:42.639Z,2.77
2022-09-25T06:22:08.996Z,2.53
2022-09-25T06:24:35.321Z,2.80
2022-09-25T06:27:01.806Z,2.60
2022-09-25T06:29:28.187Z,2.67
2022-09-25T06:31:54.490Z,2.73
2022-09-25T06:34:20.891Z,2.30
2022-09-25T06:36:47.187Z,2.70
2022-09-25T06:39:13.507Z,2.50
2022-09-25T06:41:41.169Z,2.30
2022-09-25T06:44:09.054Z,2.40
2022-09-25T06:46:36.608Z,2.63
2022-09-25T06:49:03.151Z,2.30
2022-09-25T06:51:34.814Z,2.43
2022-09-25T06:54:01.417Z,2.50
2022-09-25T06:56:27.744Z,2.40
2022-09-25T06:58:54.055Z,2.13
2022-09-25T07:01:20.486Z,3.43
2022-09-25T07:03:47.579Z,2.27
2022-09-25T07:06:23.081Z,2.50
2022-09-25T07:08:50.962Z,2.60
2022-09-25T07:11:20.198Z,2.20
2022-09-25T07:13:47.859Z,3.00
2022-09-25T07:16:17.267Z,2.90
2022-09-25T07:18:44.771Z,2.60
2022-09-25T07:21:19.436Z,2.33
2022-09-25T07:23:50.700Z,2.40
2022-09-25T07:26:26.194Z,2.47
2022-09-25T07:29:04.744Z,3.00
2022-09-25T07:31:34.005Z,2.30
2022-09-25T07:34:05.769Z,2.50
2022-09-25T07:36:32.540Z,2.33
2022-09-25T07:38:58.957Z,2.70
2022-09-25T07:41:25.323Z,2.30
2022-09-25T07:44:01.976Z,2.63
2022-09-25T07:46:43.468Z,2.47
2022-09-25T07:49:10.074Z,2.53
2022-09-25T07:51:36.402Z,2.50
2022-09-25T07:54:02.847Z,2.57
2022-09-25T07:56:29.261Z,2.73
2022-09-25T07:58:55.630Z,2.83
2022-09-25T08:01:22.066Z,2.90
2022-09-25T08:03:49.327Z,2.60
2022-09-25T08:06:15.845Z,2.53
2022-09-25T08:08:43.490Z,2.63
2022-09-25T08:11:17.037Z,2.57
2022-09-25T08:13:43.958Z,2.90
2022-09-25T08:16:13.841Z,2.07
2022-09-25T08:18:42.218Z,2.53
2022-09-25T08:21:10.061Z,2.40
2022-09-25T08:23:36.513Z,2.60
2022-09-25T08:26:03.411Z,2.67
2022-09-25T08:28:29.845Z,6.60
2022-09-25T08:30:58.984Z,3.10
2022-09-25T08:33:25.846Z,2.03
2022-09-25T08:35:57.612Z,2.60
2022-09-25T08:38:24.734Z,2.70
2022-09-25T08:40:56.748Z,3.13
2022-09-25T08:43:25.487Z,2.23
2022-09-25T08:46:12.394Z,2.03
2022-09-25T08:49:10.255Z,1.97
2022-09-25T08:51:43.105Z,2.63
2022-09-25T08:54:18.434Z,2.20
2022-09-25T08:56:45.147Z,2.40
2022-09-25T08:59:23.621Z,2.30
2022-09-25T09:01:55.791Z,2.50
2022-09-25T09:04:36.899Z,2.70
2022-09-25T09:07:29.424Z,2.20
2022-09-25T09:10:07.537Z,1.80
2022-09-25T09:12:43.853Z,2.50
2022-09-25T09:15:36.297Z,1.83
2022-09-25T09:18:16.819Z,1.70
2022-09-25T09:20:52.947Z,2.07
2022-09-25T09:23:22.442Z,2.13
2022-09-25T09:26:03.407Z,1.77
2022-09-25T09:28:51.810Z,2.53
2022-09-25T09:31:27.326Z,1.60
2022-09-25T09:34:24.084Z,1.80
2022-09-25T09:37:07.484Z,1.13
2022-09-25T09:39:45.369Z,1.73
2022-09-25T09:42:22.918Z,1.80
2022-09-25T09:45:09.305Z,2.23
2022-09-25T09:47:50.948Z,1.60
2022-09-25T09:50:42.870Z,1.73
2022-09-25T09:53:23.072Z,1.83
2022-09-25T09:55:52.391Z,1.77
2022-09-25T09:58:26.261Z,2.37
2022-09-25T10:00:52.774Z,1.97
2022-09-25T10:03:24.334Z,1.83
2022-09-25T10:06:01.880Z,2.10
2022-09-25T10:08:29.073Z,1.87
2022-09-25T10:10:55.940Z,2.07
2022-09-25T10:13:25.655Z,1.60
2022-09-25T10:16:01.302Z,1.57
2022-09-25T10:18:52.688Z,1.70
2022-09-25T10:21:22.304Z,1.83
2022-09-25T10:23:54.409Z,1.70
2022-09-25T10:26:31.931Z,1.70
2022-09-25T10:29:02.406Z,1.40
2022-09-25T10:31:38.308Z,1.50
2022-09-25T10:34:13.780Z,1.80
2022-09-25T10:36:43.343Z,1.73
2022-09-25T10:39:44.588Z,1.63
2022-09-25T10:42:39.228Z,2.17
2022-09-25T10:45:36.014Z,1.60
2022-09-25T10:48:42.276Z,1.70
2022-09-25T10:51:10.174Z,1.70
2022-09-25T10:53:37.146Z,1.37
2022-09-25T10:56:12.273Z,1.40
2022-09-25T10:58:45.317Z,1.50
2022-09-25T11:01:13.776Z,1.70
2022-09-25T11:03:51.257Z,1.50
2022-09-25T11:06:22.572Z,1.63
2022-09-25T11:09:14.145Z,1.60
2022-09-25T11:11:41.444Z,1.70
2022-09-25T11:14:19.266Z,1.60
2022-09-25T11:16:56.020Z,1.63
2022-09-25T11:19:34.206Z,1.30
2022-09-25T11:22:09.495Z,1.67
2022-09-25T11:24:48.158Z,1.30
2022-09-25T11:27:21.901Z,1.30
2022-09-25T11:29:57.946Z,1.97
2022-09-25T11:32:33.942Z,1.57
2022-09-25T11:35:12.658Z,3.00
2022-09-25T11:38:09.996Z,1.63
2022-09-25T11:41:11.184Z,1.50
2022-09-25T11:43:58.262Z,1.30
2022-09-25T11:46:33.728Z,1.40
2022-09-25T11:49:24.446Z,1.90
2022-09-25T11:52:16.319Z,1.50
2022-09-25T11:54:57.161Z,1.60
2022-09-25T11:57:42.380Z,1.17
2022-09-25T12:00:28.533Z,1.23
2022-09-25T12:03:26.840Z,1.60
2022-09-25T12:06:03.257Z,1.50
2022-09-25T12:08:58.395Z,1.30
2022-09-25T12:11:43.294Z,1.60
2022-09-25T12:14:21.773Z,1.43
2022-09-25T12:17:15.024Z,2.00
2022-09-25T12:19:55.631Z,1.17
2022-09-25T12:22:45.475Z,2.20
2022-09-25T12:25:34.785Z,1.40
2022-09-25T12:28:10.281Z,1.47
2022-09-25T12:30:50.319Z,1.10
2022-09-25T12:33:38.718Z,1.23
2022-09-25T12:36:15.054Z,1.50
2022-09-25T12:38:49.295Z,1.50
2022-09-25T12:41:30.048Z,1.50
2022-09-25T12:44:14.819Z,1.20
2022-09-25T12:46:47.095Z,1.30
2022-09-25T12:49:20.289Z,1.20
2022-09-25T12:51:52.345Z,1.37
2022-09-25T12:54:34.628Z,1.30
2022-09-25T12:57:21.831Z,1.03
2022-09-25T13:00:05.344Z,1.30
2022-09-25T13:02:41.090Z,1.20
2022-09-25T13:05:22.267Z,1.43
2022-09-25T13:08:25.351Z,1.20
2022-09-25T13:11:10.666Z,1.43
2022-09-25T13:13:45.233Z,1.73
2022-09-25T13:16:16.005Z,1.40
2022-09-25T13:19:05.776Z,1.20
2022-09-25T13:21:37.884Z,1.23
2022-09-25T13:24:08.585Z,1.67
2022-09-25T13:26:46.162Z,1.30
2022-09-25T13:29:27.909Z,1.40
2022-09-25T13:32:16.055Z,1.30
2022-09-25T13:34:42.962Z,1.33
2022-09-25T13:37:12.539Z,1.40
2022-09-25T13:40:05.194Z,1.10
2022-09-25T13:42:39.497Z,1.20
2022-09-25T13:45:30.112Z,2.27
2022-09-25T13:48:06.060Z,1.23
2022-09-25T13:50:47.151Z,1.60
2022-09-25T13:53:23.666Z,1.40
2022-09-25T13:55:49.989Z,1.20
2022-09-25T13:58:23.947Z,1.00
2022-09-25T14:00:55.534Z,1.50
2022-09-25T14:03:44.583Z,1.20
2022-09-25T14:06:19.868Z,1.60
2022-09-25T14:08:48.181Z,1.33
2022-09-25T14:11:19.861Z,1.63
2022-09-25T14:13:51.644Z,1.70
2022-09-25T14:16:43.700Z,1.60
2022-09-25T14:19:35.290Z,1.40
2022-09-25T14:22:04.850Z,1.40
2022-09-25T14:24:31.578Z,1.40
2022-09-25T14:27:01.178Z,1.30
2022-09-25T14:29:38.189Z,1.50
2022-09-25T14:32:54.598Z,1.63
2022-09-25T14:36:01.127Z,1.60
2022-09-25T14:38:54.509Z,1.60
2022-09-25T14:41:44.047Z,1.40
2022-09-25T14:44:49.235Z,1.53
2022-09-25T14:47:17.448Z,1.47
2022-09-25T14:49:48.812Z,1.00
2022-09-25T14:52:21.921Z,1.97
2022-09-25T14:54:51.330Z,1.10
2022-09-25T14:57:25.693Z,1.67
2022-09-25T14:59:56.235Z,1.70
2022-09-25T15:02:34.282Z,1.40
2022-09-25T15:05:28.904Z,1.33
2022-09-25T15:07:59.324Z,1.40
2022-09-25T15:10:38.281Z,1.33
2022-09-25T15:13:20.252Z,1.40
2022-09-25T15:16:12.877Z,1.57
2022-09-25T15:18:41.963Z,1.43
2022-09-25T15:21:23.227Z,1.40
2022-09-25T15:23:51.982Z,1.30
2022-09-25T15:26:18.630Z,1.43
2022-09-25T15:28:45.550Z,1.30
2022-09-25T15:31:12.069Z,1.87
2022-09-25T15:33:39.656Z,1.77
2022-09-25T15:36:17.303Z,1.60
2022-09-25T15:38:44.399Z,1.43
2022-09-25T15:41:17.431Z,1.83
2022-09-25T15:43:43.989Z,1.80
2022-09-25T15:46:10.529Z,1.67
2022-09-25T15:48:40.076Z,1.63
2022-09-25T15:51:35.963Z,1.30
2022-09-25T15:54:25.968Z,1.60
2022-09-25T15:56:55.206Z,1.77
2022-09-25T15:59:33.184Z,1.60
2022-09-25T16:02:28.045Z,1.30
2022-09-25T16:04:54.743Z,1.57
2022-09-25T16:07:32.139Z,1.57
2022-09-25T16:10:25.501Z,1.63
2022-09-25T16:12:51.850Z,1.40
2022-09-25T16:15:27.640Z,1.57
2022-09-25T16:18:05.842Z,1.43
2022-09-25T16:20:36.028Z,1.33
2022-09-25T16:23:20.333Z,2.10
2022-09-25T16:25:46.777Z,1.33
2022-09-25T16:28:20.530Z,1.20
2022-09-25T16:30:49.871Z,1.30
2022-09-25T16:33:23.764Z,1.00
2022-09-25T16:36:10.630Z,1.30
2022-09-25T16:38:41.318Z,1.40
2022-09-25T16:41:17.154Z,1.30
2022-09-25T16:43:43.538Z,1.30
2022-09-25T16:46:16.248Z,1.40
2022-09-25T16:48:44.596Z,1.30
2022-09-25T16:51:19.305Z,1.20
2022-09-25T16:53:46.425Z,1.20
2022-09-25T16:56:20.774Z,1.40
2022-09-25T16:58:47.335Z,1.17
2022-09-25T17:01:13.790Z,1.70
2022-09-25T17:03:52.822Z,1.70
2022-09-25T17:06:26.694Z,1.13
2022-09-25T17:08:53.532Z,1.40
2022-09-25T17:11:21.761Z,1.53
2022-09-25T17:13:48.916Z,1.70
2022-09-25T17:16:15.474Z,1.60
2022-09-25T17:18:42.564Z,1.60
2022-09-25T17:21:14.924Z,2.23
2022-09-25T17:23:43.519Z,1.57
2022-09-25T17:26:23.298Z,1.77
2022-09-25T17:28:51.210Z,1.60
2022-09-25T17:31:20.432Z,1.73
2022-09-25T17:33:49.809Z,1.50
2022-09-25T17:36:16.829Z,1.80
2022-09-25T17:38:44.311Z,1.70
2022-09-25T17:41:21.897Z,1.60
2022-09-25T17:43:49.264Z,2.17
2022-09-25T17:46:18.922Z,1.97
2022-09-25T17:48:47.897Z,1.93
2022-09-25T17:51:20.389Z,2.10
2022-09-25T17:53:49.091Z,2.67
2022-09-25T17:56:15.822Z,2.10
2022-09-25T17:58:45.341Z,2.30
2022-09-25T18:01:15.380Z,2.40
2022-09-25T18:03:41.750Z,1.80
2022-09-25T18:06:08.155Z,2.07
2022-09-25T18:08:34.640Z,2.50
2022-09-25T18:11:01.036Z,1.70
2022-09-25T18:16:02.027Z,2.20
2022-09-25T18:18:50.954Z,2.50
2022-09-25T18:21:36.800Z,2.07
2022-09-25T18:24:03.673Z,3.00
2022-09-25T18:26:31.571Z,2.70
2022-09-25T18:28:58.362Z,3.10
2022-09-25T18:31:25.364Z,2.50
2022-09-25T18:33:54.657Z,2.83
2022-09-25T18:36:22.158Z,2.20
2022-09-25T18:38:48.615Z,2.30
2022-09-25T18:41:15.087Z,2.30
2022-09-25T18:43:41.555Z,2.50
2022-09-25T18:46:08.097Z,2.13
2022-09-25T18:48:37.015Z,2.50
2022-09-25T18:51:03.718Z,2.50
2022-09-25T18:53:30.241Z,2.40
2022-09-25T18:55:59.508Z,2.20
2022-09-25T18:58:29.418Z,2.40
2022-09-25T19:00:56.185Z,2.83
2022-09-25T19:03:22.793Z,2.73
2022-09-25T19:06:02.874Z,2.20
2022-09-25T19:08:31.126Z,2.60
2022-09-25T19:11:00.400Z,2.00
2022-09-25T19:13:27.410Z,2.10
2022-09-25T19:15:55.588Z,2.20
2022-09-25T19:18:22.242Z,2.30
2022-09-25T19:20:54.242Z,2.07
2022-09-25T19:23:22.155Z,2.03
2022-09-25T19:25:53.317Z,2.30
2022-09-25T19:28:19.724Z,2.67
2022-09-25T19:31:15.251Z,2.30
2022-09-25T19:33:41.944Z,2.80
2022-09-25T19:36:19.067Z,2.50
2022-09-25T19:38:46.653Z,2.70
2022-09-25T19:41:26.214Z,2.73
2022-09-25T19:43:54.675Z,3.33
2022-09-25T19:46:21.152Z,3.23
2022-09-25T19:48:48.575Z,3.67
2022-09-25T19:51:17.135Z,2.73
2022-09-25T19:53:44.436Z,2.70
2022-09-25T19:56:11.897Z,3.47
2022-09-25T19:58:38.818Z,3.30
2022-09-25T20:01:13.519Z,3.50
2022-09-25T20:03:41.212Z,5.40
2022-09-25T20:06:09.455Z,3.60
2022-09-25T20:08:36.902Z,3.67
2022-09-25T20:11:19.609Z,3.40
2022-09-25T20:13:47.359Z,3.70
2022-09-25T20:16:17.212Z,3.40
2022-09-25T20:18:48.061Z,4.23
2022-09-25T20:21:17.347Z,3.53
2022-09-25T20:23:43.854Z,4.23
2022-09-25T20:26:12.918Z,4.00
2022-09-25T20:28:40.773Z,4.20
2022-09-25T20:31:08.973Z,3.90
2022-09-25T20:33:36.078Z,4.40
2022-09-25T20:36:04.615Z,4.20
2022-09-25T20:38:32.653Z,4.20
2022-09-25T20:41:04.369Z,4.60
2022-09-25T20:43:30.743Z,4.63
2022-09-25T20:46:05.368Z,3.93
2022-09-25T20:48:32.288Z,3.90
2022-09-25T20:50:58.668Z,4.33
2022-09-25T20:53:25.667Z,4.13
2022-09-25T20:55:52.044Z,3.87
2022-09-25T20:58:18.799Z,3.87
2022-09-25T21:00:45.918Z,4.10
2022-09-25T21:03:12.839Z,4.43
2022-09-25T21:05:40.871Z,4.87
2022-09-25T21:08:07.445Z,5.13
2022-09-25T21:10:37.258Z,4.83
2022-09-25T21:13:06.330Z,3.97
2022-09-25T21:15:33.102Z,4.47
2022-09-25T21:17:59.962Z,5.00
2022-09-25T21:20:26.777Z,4.47
2022-09-25T21:22:54.551Z,3.97
2022-09-25T21:25:21.381Z,4.13
2022-09-25T21:27:47.870Z,4.77
2022-09-25T21:30:14.243Z,4.23
2022-09-25T21:32:40.887Z,3.80
2022-09-25T21:35:07.560Z,4.53
2022-09-25T21:37:34.347Z,4.10
2022-09-25T21:40:00.852Z,3.50
2022-09-25T21:42:29.599Z,4.13
2022-09-25T21:44:57.557Z,4.43
2022-09-25T21:47:23.870Z,3.70
2022-09-25T21:49:50.786Z,3.63
2022-09-25T21:52:17.125Z,3.60
2022-09-25T21:54:43.581Z,3.40
2022-09-25T21:57:10.025Z,3.40
2022-09-25T21:59:36.355Z,3.60
2022-09-25T22:02:02.694Z,3.23
2022-09-25T22:04:29.041Z,3.53
2022-09-25T22:06:57.609Z,3.37
2022-09-25T22:09:24.845Z,3.60
2022-09-25T22:11:51.449Z,3.67
2022-09-25T22:14:19.454Z,3.30
2022-09-25T22:16:49.675Z,3.10
2022-09-25T22:19:20.956Z,3.40
2022-09-25T22:21:49.441Z,4.03
2022-09-25T22:24:16.428Z,3.23
2022-09-25T22:26:44.723Z,3.67
2022-09-25T22:29:11.583Z,2.93
2022-09-25T22:31:38.509Z,3.27
2022-09-25T22:34:08.420Z,3.07
2022-09-25T22:36:36.260Z,3.63
2022-09-25T22:39:04.427Z,3.20
2022-09-25T22:41:31.554Z,2.50
2022-09-25T22:44:00.637Z,2.70
2022-09-25T22:46:27.623Z,2.80
2022-09-25T22:48:53.995Z,3.10
2022-09-25T22:51:22.707Z,2.67
2022-09-25T22:53:49.730Z,2.80
2022-09-25T22:56:24.959Z,3.10
2022-09-25T22:58:57.293Z,3.37
2022-09-25T23:01:36.868Z,2.83
2022-09-25T23:04:06.368Z,2.70
2022-09-25T23:06:34.399Z,2.63
2022-09-25T23:09:03.558Z,2.77
2022-09-25T23:11:30.905Z,3.07
2022-09-25T23:14:09.809Z,3.10
2022-09-25T23:16:36.922Z,2.67
2022-09-25T23:19:03.782Z,2.80
2022-09-25T23:21:31.383Z,2.97
2022-09-25T23:24:00.011Z,3.00
2022-09-25T23:26:27.347Z,2.93
2022-09-25T23:28:54.233Z,3.43
2022-09-25T23:31:21.313Z,3.70
2022-09-25T23:33:48.155Z,2.90
2022-09-25T23:36:23.066Z,2.43
2022-09-25T23:38:51.351Z,2.73
2022-09-25T23:41:24.131Z,2.90
2022-09-25T23:43:51.848Z,2.70
2022-09-25T23:46:22.038Z,3.03
2022-09-25T23:48:49.471Z,2.70
2022-09-25T23:51:17.135Z,2.93
2022-09-25T23:53:44.325Z,2.50
2022-09-25T23:56:13.421Z,2.70
2022-09-25T23:58:40.502Z,2.60
